sensor_id;sensor_type;location;lat;lon;timestamp;P1;durP1;ratioP1;P2;durP2;ratioP2
16832;SDS011;8533;48.426;10.868;2023-04-03T00:00:54;5.60;;;3.57;;
16832;SDS011;8533;48.426;10.868;2023-04-03T00:03:23;4.00;;;3.30;;
16832;SDS011;8533;48.426;10.868;2023-04-03T00:05:50;4.47;;;3.50;;
16832;SDS011;8533;48.426;10.868;2023-04-03T00:08:18;5.00;;;3.40;;
16832;SDS011;8533;48.426;10.868;2023-04-03T00:10:45;5.00;;;3.30;;
16832;SDS011;8533;48.426;10.868;2023-04-03T00:13:14;3.70;;;2.77;;
16832;SDS011;8533;48.426;10.868;2023-04-03T00:15:42;5.27;;;3.60;;
16832;SDS011;8533;48.426;10.868;2023-04-03T00:18:10;3.40;;;2.83;;
16832;SDS011;8533;48.426;10.868;2023-04-03T00:20:37;3.00;;;2.70;;
16832;SDS011;8533;48.426;10.868;2023-04-03T00:23:05;5.57;;;3.10;;
16832;SDS011;8533;48.426;10.868;2023-04-03T00:25:32;5.20;;;3.17;;
16832;SDS011;8533;48.426;10.868;2023-04-03T00:28:00;5.13;;;3.27;;
16832;SDS011;8533;48.426;10.868;2023-04-03T00:30:28;4.40;;;2.63;;
16832;SDS011;8533;48.426;10.868;2023-04-03T00:32:55;3.60;;;2.70;;
16832;SDS011;8533;48.426;10.868;2023-04-03T00:35:23;3.33;;;2.50;;
16832;SDS011;8533;48.426;10.868;2023-04-03T00:37:51;3.83;;;2.50;;
16832;SDS011;8533;48.426;10.868;2023-04-03T00:40:21;3.07;;;2.57;;
16832;SDS011;8533;48.426;10.868;2023-04-03T00:42:56;4.23;;;2.53;;
16832;SDS011;8533;48.426;10.868;2023-04-03T00:45:27;3.40;;;2.40;;
16832;SDS011;8533;48.426;10.868;2023-04-03T00:47:56;4.63;;;2.57;;
16832;SDS011;8533;48.426;10.868;2023-04-03T00:50:26;4.20;;;3.07;;
16832;SDS011;8533;48.426;10.868;2023-04-03T00:52:55;5.30;;;2.90;;
16832;SDS011;8533;48.426;10.868;2023-04-03T00:55:23;3.40;;;2.83;;
16832;SDS011;8533;48.426;10.868;2023-04-03T00:57:51;5.33;;;2.63;;
16832;SDS011;8533;48.426;10.868;2023-04-03T01:00:21;3.67;;;3.03;;
16832;SDS011;8533;48.426;10.868;2023-04-03T01:02:50;3.27;;;2.50;;
16832;SDS011;8533;48.426;10.868;2023-04-03T01:05:19;4.50;;;3.13;;
16832;SDS011;8533;48.426;10.868;2023-04-03T01:07:48;4.13;;;2.40;;
16832;SDS011;8533;48.426;10.868;2023-04-03T01:10:17;3.70;;;2.87;;
16832;SDS011;8533;48.426;10.868;2023-04-03T01:12:48;5.57;;;3.10;;
16832;SDS011;8533;48.426;10.868;2023-04-03T01:15:18;2.83;;;2.43;;
16832;SDS011;8533;48.426;10.868;2023-04-03T01:17:53;3.93;;;2.87;;
16832;SDS011;8533;48.426;10.868;2023-04-03T01:28:15;2.77;;;2.23;;
16832;SDS011;8533;48.426;10.868;2023-04-03T01:33:30;2.77;;;2.53;;
16832;SDS011;8533;48.426;10.868;2023-04-03T01:35:58;3.30;;;2.40;;
16832;SDS011;8533;48.426;10.868;2023-04-03T01:38:25;2.57;;;2.13;;
16832;SDS011;8533;48.426;10.868;2023-04-03T01:40:53;3.20;;;2.53;;
16832;SDS011;8533;48.426;10.868;2023-04-03T01:43:20;3.10;;;2.30;;
16832;SDS011;8533;48.426;10.868;2023-04-03T01:45:48;2.53;;;2.10;;
16832;SDS011;8533;48.426;10.868;2023-04-03T01:48:18;2.30;;;2.10;;
16832;SDS011;8533;48.426;10.868;2023-04-03T01:50:45;3.10;;;2.40;;
16832;SDS011;8533;48.426;10.868;2023-04-03T01:53:13;3.07;;;2.50;;
16832;SDS011;8533;48.426;10.868;2023-04-03T01:55:41;3.10;;;2.30;;
16832;SDS011;8533;48.426;10.868;2023-04-03T01:58:09;2.63;;;2.10;;
16832;SDS011;8533;48.426;10.868;2023-04-03T02:00:36;3.43;;;2.60;;
16832;SDS011;8533;48.426;10.868;2023-04-03T02:03:04;2.33;;;2.13;;
16832;SDS011;8533;48.426;10.868;2023-04-03T02:05:32;2.00;;;1.90;;
16832;SDS011;8533;48.426;10.868;2023-04-03T02:08:00;3.17;;;2.40;;
16832;SDS011;8533;48.426;10.868;2023-04-03T02:10:27;3.13;;;2.40;;
16832;SDS011;8533;48.426;10.868;2023-04-03T02:12:55;3.87;;;2.57;;
16832;SDS011;8533;48.426;10.868;2023-04-03T02:15:22;5.00;;;2.67;;
16832;SDS011;8533;48.426;10.868;2023-04-03T02:17:50;2.23;;;2.03;;
16832;SDS011;8533;48.426;10.868;2023-04-03T02:20:18;3.43;;;2.40;;
16832;SDS011;8533;48.426;10.868;2023-04-03T02:22:45;3.17;;;2.60;;
16832;SDS011;8533;48.426;10.868;2023-04-03T02:25:13;3.47;;;2.60;;
16832;SDS011;8533;48.426;10.868;2023-04-03T02:27:41;2.87;;;2.40;;
16832;SDS011;8533;48.426;10.868;2023-04-03T02:30:08;5.17;;;2.57;;
16832;SDS011;8533;48.426;10.868;2023-04-03T02:32:36;4.23;;;2.40;;
16832;SDS011;8533;48.426;10.868;2023-04-03T02:35:04;3.13;;;2.77;;
16832;SDS011;8533;48.426;10.868;2023-04-03T02:37:31;2.63;;;2.40;;
16832;SDS011;8533;48.426;10.868;2023-04-03T02:39:59;2.70;;;2.30;;
16832;SDS011;8533;48.426;10.868;2023-04-03T02:42:26;4.10;;;2.50;;
16832;SDS011;8533;48.426;10.868;2023-04-03T02:44:54;2.83;;;2.30;;
16832;SDS011;8533;48.426;10.868;2023-04-03T02:47:21;3.43;;;2.20;;
16832;SDS011;8533;48.426;10.868;2023-04-03T02:49:49;2.30;;;2.10;;
16832;SDS011;8533;48.426;10.868;2023-04-03T02:52:18;3.50;;;2.70;;
16832;SDS011;8533;48.426;10.868;2023-04-03T02:54:46;3.13;;;2.47;;
16832;SDS011;8533;48.426;10.868;2023-04-03T02:57:14;3.37;;;2.67;;
16832;SDS011;8533;48.426;10.868;2023-04-03T02:59:41;4.50;;;2.70;;
16832;SDS011;8533;48.426;10.868;2023-04-03T03:02:09;3.27;;;2.63;;
16832;SDS011;8533;48.426;10.868;2023-04-03T03:04:37;3.07;;;2.50;;
16832;SDS011;8533;48.426;10.868;2023-04-03T03:07:05;5.67;;;2.63;;
16832;SDS011;8533;48.426;10.868;2023-04-03T03:09:32;3.33;;;2.53;;
16832;SDS011;8533;48.426;10.868;2023-04-03T03:12:00;3.83;;;2.70;;
16832;SDS011;8533;48.426;10.868;2023-04-03T03:14:27;2.43;;;2.23;;
16832;SDS011;8533;48.426;10.868;2023-04-03T03:16:55;2.77;;;1.97;;
16832;SDS011;8533;48.426;10.868;2023-04-03T03:19:23;3.77;;;2.97;;
16832;SDS011;8533;48.426;10.868;2023-04-03T03:21:50;2.67;;;2.40;;
16832;SDS011;8533;48.426;10.868;2023-04-03T03:24:18;3.17;;;2.60;;
16832;SDS011;8533;48.426;10.868;2023-04-03T03:26:45;4.00;;;2.30;;
16832;SDS011;8533;48.426;10.868;2023-04-03T03:29:12;4.80;;;2.93;;
16832;SDS011;8533;48.426;10.868;2023-04-03T03:31:40;3.43;;;2.93;;
16832;SDS011;8533;48.426;10.868;2023-04-03T03:34:07;3.33;;;2.30;;
16832;SDS011;8533;48.426;10.868;2023-04-03T03:36:35;3.40;;;2.50;;
16832;SDS011;8533;48.426;10.868;2023-04-03T03:39:02;3.90;;;2.77;;
16832;SDS011;8533;48.426;10.868;2023-04-03T03:41:30;3.47;;;2.77;;
16832;SDS011;8533;48.426;10.868;2023-04-03T03:43:57;3.17;;;2.50;;
16832;SDS011;8533;48.426;10.868;2023-04-03T03:46:25;3.50;;;2.87;;
16832;SDS011;8533;48.426;10.868;2023-04-03T03:48:52;3.87;;;2.70;;
16832;SDS011;8533;48.426;10.868;2023-04-03T03:51:20;3.80;;;2.63;;
16832;SDS011;8533;48.426;10.868;2023-04-03T03:53:47;3.67;;;2.60;;
16832;SDS011;8533;48.426;10.868;2023-04-03T03:56:14;3.53;;;2.47;;
16832;SDS011;8533;48.426;10.868;2023-04-03T03:58:42;3.30;;;2.53;;
16832;SDS011;8533;48.426;10.868;2023-04-03T04:01:09;2.87;;;2.30;;
16832;SDS011;8533;48.426;10.868;2023-04-03T04:03:37;3.10;;;2.57;;
16832;SDS011;8533;48.426;10.868;2023-04-03T04:06:05;3.83;;;2.90;;
16832;SDS011;8533;48.426;10.868;2023-04-03T04:08:32;3.27;;;2.47;;
16832;SDS011;8533;48.426;10.868;2023-04-03T04:13:37;3.27;;;2.67;;
16832;SDS011;8533;48.426;10.868;2023-04-03T04:16:04;3.87;;;2.93;;
16832;SDS011;8533;48.426;10.868;2023-04-03T04:18:32;4.90;;;3.07;;
16832;SDS011;8533;48.426;10.868;2023-04-03T04:21:00;7.40;;;3.30;;
16832;SDS011;8533;48.426;10.868;2023-04-03T04:23:27;3.53;;;2.60;;
16832;SDS011;8533;48.426;10.868;2023-04-03T04:25:55;4.90;;;3.20;;
16832;SDS011;8533;48.426;10.868;2023-04-03T04:28:22;4.63;;;3.23;;
16832;SDS011;8533;48.426;10.868;2023-04-03T04:30:49;2.50;;;2.30;;
16832;SDS011;8533;48.426;10.868;2023-04-03T04:33:17;3.70;;;2.80;;
16832;SDS011;8533;48.426;10.868;2023-04-03T04:35:46;3.20;;;2.67;;
16832;SDS011;8533;48.426;10.868;2023-04-03T04:38:14;3.87;;;2.80;;
16832;SDS011;8533;48.426;10.868;2023-04-03T04:40:42;4.23;;;3.10;;
16832;SDS011;8533;48.426;10.868;2023-04-03T04:43:09;5.53;;;2.80;;
16832;SDS011;8533;48.426;10.868;2023-04-03T04:45:38;4.60;;;2.97;;
16832;SDS011;8533;48.426;10.868;2023-04-03T04:48:07;2.87;;;2.33;;
16832;SDS011;8533;48.426;10.868;2023-04-03T04:50:35;2.70;;;2.50;;
16832;SDS011;8533;48.426;10.868;2023-04-03T04:53:02;4.50;;;2.80;;
16832;SDS011;8533;48.426;10.868;2023-04-03T04:55:29;3.53;;;2.70;;
16832;SDS011;8533;48.426;10.868;2023-04-03T04:57:57;4.10;;;3.00;;
16832;SDS011;8533;48.426;10.868;2023-04-03T05:00:24;5.07;;;2.93;;
16832;SDS011;8533;48.426;10.868;2023-04-03T05:02:52;4.70;;;3.10;;
16832;SDS011;8533;48.426;10.868;2023-04-03T05:05:20;3.33;;;2.50;;
16832;SDS011;8533;48.426;10.868;2023-04-03T05:07:48;3.67;;;3.00;;
16832;SDS011;8533;48.426;10.868;2023-04-03T05:10:15;3.60;;;2.87;;
16832;SDS011;8533;48.426;10.868;2023-04-03T05:12:42;3.60;;;2.83;;
16832;SDS011;8533;48.426;10.868;2023-04-03T05:15:10;3.23;;;2.87;;
16832;SDS011;8533;48.426;10.868;2023-04-03T05:17:37;3.10;;;2.77;;
16832;SDS011;8533;48.426;10.868;2023-04-03T05:20:05;4.07;;;2.93;;
16832;SDS011;8533;48.426;10.868;2023-04-03T05:22:34;3.60;;;2.50;;
16832;SDS011;8533;48.426;10.868;2023-04-03T05:25:01;3.10;;;2.70;;
16832;SDS011;8533;48.426;10.868;2023-04-03T05:27:28;3.63;;;2.80;;
16832;SDS011;8533;48.426;10.868;2023-04-03T05:29:56;5.87;;;3.40;;
16832;SDS011;8533;48.426;10.868;2023-04-03T05:32:24;5.03;;;3.23;;
16832;SDS011;8533;48.426;10.868;2023-04-03T05:34:53;5.00;;;3.33;;
16832;SDS011;8533;48.426;10.868;2023-04-03T05:37:20;5.27;;;2.63;;
16832;SDS011;8533;48.426;10.868;2023-04-03T05:39:48;3.53;;;2.50;;
16832;SDS011;8533;48.426;10.868;2023-04-03T05:42:15;4.67;;;3.17;;
16832;SDS011;8533;48.426;10.868;2023-04-03T05:44:43;4.57;;;2.73;;
16832;SDS011;8533;48.426;10.868;2023-04-03T05:47:12;4.87;;;2.77;;
16832;SDS011;8533;48.426;10.868;2023-04-03T05:49:40;4.40;;;3.00;;
16832;SDS011;8533;48.426;10.868;2023-04-03T05:54:59;4.50;;;2.77;;
16832;SDS011;8533;48.426;10.868;2023-04-03T05:57:27;3.17;;;2.80;;
16832;SDS011;8533;48.426;10.868;2023-04-03T05:59:54;5.40;;;3.27;;
16832;SDS011;8533;48.426;10.868;2023-04-03T06:02:22;5.53;;;3.37;;
16832;SDS011;8533;48.426;10.868;2023-04-03T06:04:51;6.73;;;3.60;;
16832;SDS011;8533;48.426;10.868;2023-04-03T06:07:20;3.57;;;2.60;;
16832;SDS011;8533;48.426;10.868;2023-04-03T06:09:49;4.83;;;2.73;;
16832;SDS011;8533;48.426;10.868;2023-04-03T06:12:17;5.63;;;3.07;;
16832;SDS011;8533;48.426;10.868;2023-04-03T06:14:45;3.70;;;3.00;;
16832;SDS011;8533;48.426;10.868;2023-04-03T06:17:14;3.83;;;3.00;;
16832;SDS011;8533;48.426;10.868;2023-04-03T06:19:43;4.50;;;3.33;;
16832;SDS011;8533;48.426;10.868;2023-04-03T06:22:11;5.73;;;3.87;;
16832;SDS011;8533;48.426;10.868;2023-04-03T06:24:39;3.67;;;2.70;;
16832;SDS011;8533;48.426;10.868;2023-04-03T06:27:07;3.70;;;3.10;;
16832;SDS011;8533;48.426;10.868;2023-04-03T06:29:36;4.77;;;3.23;;
16832;SDS011;8533;48.426;10.868;2023-04-03T06:32:03;6.63;;;3.37;;
16832;SDS011;8533;48.426;10.868;2023-04-03T06:34:31;5.47;;;3.13;;
16832;SDS011;8533;48.426;10.868;2023-04-03T06:36:59;4.43;;;3.00;;
16832;SDS011;8533;48.426;10.868;2023-04-03T06:39:26;4.43;;;2.93;;
16832;SDS011;8533;48.426;10.868;2023-04-03T06:41:53;3.27;;;2.67;;
16832;SDS011;8533;48.426;10.868;2023-04-03T06:44:21;5.00;;;3.07;;
16832;SDS011;8533;48.426;10.868;2023-04-03T06:46:48;4.80;;;2.93;;
16832;SDS011;8533;48.426;10.868;2023-04-03T06:49:17;3.90;;;3.13;;
16832;SDS011;8533;48.426;10.868;2023-04-03T06:51:45;3.73;;;3.00;;
16832;SDS011;8533;48.426;10.868;2023-04-03T06:54:12;6.37;;;3.17;;
16832;SDS011;8533;48.426;10.868;2023-04-03T06:56:40;7.07;;;3.27;;
16832;SDS011;8533;48.426;10.868;2023-04-03T06:59:08;4.03;;;3.17;;
16832;SDS011;8533;48.426;10.868;2023-04-03T07:01:39;10.27;;;4.23;;
16832;SDS011;8533;48.426;10.868;2023-04-03T07:04:07;5.40;;;3.00;;
16832;SDS011;8533;48.426;10.868;2023-04-03T07:06:35;4.17;;;3.20;;
16832;SDS011;8533;48.426;10.868;2023-04-03T07:09:02;3.97;;;3.10;;
16832;SDS011;8533;48.426;10.868;2023-04-03T07:11:30;4.63;;;3.07;;
16832;SDS011;8533;48.426;10.868;2023-04-03T07:13:58;3.80;;;3.33;;
16832;SDS011;8533;48.426;10.868;2023-04-03T07:16:25;5.77;;;3.40;;
16832;SDS011;8533;48.426;10.868;2023-04-03T07:18:52;3.57;;;3.03;;
16832;SDS011;8533;48.426;10.868;2023-04-03T07:21:20;4.83;;;3.30;;
16832;SDS011;8533;48.426;10.868;2023-04-03T07:23:47;7.33;;;3.70;;
16832;SDS011;8533;48.426;10.868;2023-04-03T07:26:15;4.57;;;3.37;;
16832;SDS011;8533;48.426;10.868;2023-04-03T07:28:43;4.70;;;3.40;;
16832;SDS011;8533;48.426;10.868;2023-04-03T07:31:12;4.10;;;3.23;;
16832;SDS011;8533;48.426;10.868;2023-04-03T07:33:40;6.07;;;3.73;;
16832;SDS011;8533;48.426;10.868;2023-04-03T07:36:09;7.00;;;3.60;;
16832;SDS011;8533;48.426;10.868;2023-04-03T07:38:37;3.73;;;3.00;;
16832;SDS011;8533;48.426;10.868;2023-04-03T07:41:05;4.80;;;3.63;;
16832;SDS011;8533;48.426;10.868;2023-04-03T07:43:32;4.07;;;3.03;;
16832;SDS011;8533;48.426;10.868;2023-04-03T07:46:00;4.67;;;3.60;;
16832;SDS011;8533;48.426;10.868;2023-04-03T07:48:27;6.37;;;4.03;;
16832;SDS011;8533;48.426;10.868;2023-04-03T07:50:58;5.67;;;3.50;;
16832;SDS011;8533;48.426;10.868;2023-04-03T07:53:27;3.83;;;3.23;;
16832;SDS011;8533;48.426;10.868;2023-04-03T07:55:56;5.00;;;3.73;;
16832;SDS011;8533;48.426;10.868;2023-04-03T07:58:24;5.60;;;3.60;;
16832;SDS011;8533;48.426;10.868;2023-04-03T08:00:52;6.93;;;3.77;;
16832;SDS011;8533;48.426;10.868;2023-04-03T08:03:20;3.90;;;3.27;;
16832;SDS011;8533;48.426;10.868;2023-04-03T08:05:49;6.37;;;3.23;;
16832;SDS011;8533;48.426;10.868;2023-04-03T08:08:19;4.43;;;3.13;;
16832;SDS011;8533;48.426;10.868;2023-04-03T08:10:49;5.83;;;3.33;;
16832;SDS011;8533;48.426;10.868;2023-04-03T08:13:18;3.90;;;3.00;;
16832;SDS011;8533;48.426;10.868;2023-04-03T08:15:46;3.80;;;3.27;;
16832;SDS011;8533;48.426;10.868;2023-04-03T08:18:14;4.00;;;2.87;;
16832;SDS011;8533;48.426;10.868;2023-04-03T08:20:42;9.07;;;3.40;;
16832;SDS011;8533;48.426;10.868;2023-04-03T08:23:11;5.70;;;3.73;;
16832;SDS011;8533;48.426;10.868;2023-04-03T08:25:39;3.93;;;3.23;;
16832;SDS011;8533;48.426;10.868;2023-04-03T08:28:08;4.80;;;3.70;;
16832;SDS011;8533;48.426;10.868;2023-04-03T08:30:39;4.47;;;3.50;;
16832;SDS011;8533;48.426;10.868;2023-04-03T08:33:08;3.53;;;3.17;;
16832;SDS011;8533;48.426;10.868;2023-04-03T08:35:39;5.43;;;4.10;;
16832;SDS011;8533;48.426;10.868;2023-04-03T08:38:08;4.90;;;3.50;;
16832;SDS011;8533;48.426;10.868;2023-04-03T08:40:36;3.80;;;3.23;;
16832;SDS011;8533;48.426;10.868;2023-04-03T08:45:48;6.40;;;3.20;;
16832;SDS011;8533;48.426;10.868;2023-04-03T08:48:19;5.67;;;3.90;;
16832;SDS011;8533;48.426;10.868;2023-04-03T08:50:54;5.47;;;4.10;;
16832;SDS011;8533;48.426;10.868;2023-04-03T08:53:24;4.03;;;3.57;;
16832;SDS011;8533;48.426;10.868;2023-04-03T08:55:49;5.00;;;3.77;;
16832;SDS011;8533;48.426;10.868;2023-04-03T08:58:20;4.50;;;3.20;;
16832;SDS011;8533;48.426;10.868;2023-04-03T09:01:00;8.33;;;4.13;;
16832;SDS011;8533;48.426;10.868;2023-04-03T09:03:36;6.60;;;3.70;;
16832;SDS011;8533;48.426;10.868;2023-04-03T09:06:06;6.23;;;3.53;;
16832;SDS011;8533;48.426;10.868;2023-04-03T09:11:18;4.17;;;3.30;;
16832;SDS011;8533;48.426;10.868;2023-04-03T09:16:41;4.57;;;3.27;;
16832;SDS011;8533;48.426;10.868;2023-04-03T09:25:05;5.13;;;3.50;;
16832;SDS011;8533;48.426;10.868;2023-04-03T09:29:56;5.60;;;3.63;;
16832;SDS011;8533;48.426;10.868;2023-04-03T09:32:26;5.47;;;4.30;;
16832;SDS011;8533;48.426;10.868;2023-04-03T09:34:59;5.20;;;3.67;;
16832;SDS011;8533;48.426;10.868;2023-04-03T09:37:46;6.37;;;3.67;;
16832;SDS011;8533;48.426;10.868;2023-04-03T09:45:25;5.77;;;3.50;;
16832;SDS011;8533;48.426;10.868;2023-04-03T09:58:33;3.90;;;3.10;;
16832;SDS011;8533;48.426;10.868;2023-04-03T10:01:03;4.73;;;3.23;;
16832;SDS011;8533;48.426;10.868;2023-04-03T10:03:32;7.03;;;3.07;;
16832;SDS011;8533;48.426;10.868;2023-04-03T10:06:12;3.20;;;2.73;;
16832;SDS011;8533;48.426;10.868;2023-04-03T10:08:33;4.77;;;3.40;;
16832;SDS011;8533;48.426;10.868;2023-04-03T10:11:07;5.20;;;3.53;;
16832;SDS011;8533;48.426;10.868;2023-04-03T10:18:58;5.40;;;3.20;;
16832;SDS011;8533;48.426;10.868;2023-04-03T10:24:19;5.23;;;3.67;;
16832;SDS011;8533;48.426;10.868;2023-04-03T10:27:05;3.67;;;2.93;;
16832;SDS011;8533;48.426;10.868;2023-04-03T10:32:21;4.93;;;3.17;;
16832;SDS011;8533;48.426;10.868;2023-04-03T10:42:43;4.87;;;2.80;;
16832;SDS011;8533;48.426;10.868;2023-04-03T10:53:16;3.90;;;2.60;;
16832;SDS011;8533;48.426;10.868;2023-04-03T10:59:02;5.13;;;3.20;;
16832;SDS011;8533;48.426;10.868;2023-04-03T11:03:32;21.33;;;8.60;;
16832;SDS011;8533;48.426;10.868;2023-04-03T11:14:31;3.70;;;3.20;;
16832;SDS011;8533;48.426;10.868;2023-04-03T11:17:11;3.73;;;2.90;;
16832;SDS011;8533;48.426;10.868;2023-04-03T11:19:57;7.27;;;3.27;;
16832;SDS011;8533;48.426;10.868;2023-04-03T11:27:26;3.53;;;2.63;;
16832;SDS011;8533;48.426;10.868;2023-04-03T11:29:58;4.53;;;2.80;;
16832;SDS011;8533;48.426;10.868;2023-04-03T11:32:34;4.50;;;3.30;;
16832;SDS011;8533;48.426;10.868;2023-04-03T11:37:33;3.80;;;2.90;;
16832;SDS011;8533;48.426;10.868;2023-04-03T11:40:06;5.67;;;2.73;;
16832;SDS011;8533;48.426;10.868;2023-04-03T11:55:42;5.13;;;2.53;;
16832;SDS011;8533;48.426;10.868;2023-04-03T12:03:34;3.03;;;2.73;;
16832;SDS011;8533;48.426;10.868;2023-04-03T12:23:56;4.33;;;2.23;;
16832;SDS011;8533;48.426;10.868;2023-04-03T12:34:49;2.90;;;2.30;;
16832;SDS011;8533;48.426;10.868;2023-04-03T12:40:36;2.33;;;1.97;;
16832;SDS011;8533;48.426;10.868;2023-04-03T12:45:46;3.90;;;1.87;;
16832;SDS011;8533;48.426;10.868;2023-04-03T12:50:43;3.50;;;2.50;;
16832;SDS011;8533;48.426;10.868;2023-04-03T12:53:23;2.30;;;1.90;;
16832;SDS011;8533;48.426;10.868;2023-04-03T12:55:56;1.80;;;1.70;;
16832;SDS011;8533;48.426;10.868;2023-04-03T12:58:26;5.80;;;3.87;;
16832;SDS011;8533;48.426;10.868;2023-04-03T13:01:03;3.43;;;1.90;;
16832;SDS011;8533;48.426;10.868;2023-04-03T13:06:06;1.97;;;1.70;;
16832;SDS011;8533;48.426;10.868;2023-04-03T13:08:34;2.23;;;2.00;;
16832;SDS011;8533;48.426;10.868;2023-04-03T13:11:02;2.17;;;1.90;;
16832;SDS011;8533;48.426;10.868;2023-04-03T13:13:31;4.43;;;1.80;;
16832;SDS011;8533;48.426;10.868;2023-04-03T13:15:59;2.13;;;1.87;;
16832;SDS011;8533;48.426;10.868;2023-04-03T13:18:32;2.37;;;1.90;;
16832;SDS011;8533;48.426;10.868;2023-04-03T13:21:04;2.67;;;1.80;;
16832;SDS011;8533;48.426;10.868;2023-04-03T13:23:36;1.50;;;1.33;;
16832;SDS011;8533;48.426;10.868;2023-04-03T13:26:05;2.90;;;2.00;;
16832;SDS011;8533;48.426;10.868;2023-04-03T13:28:34;2.83;;;1.60;;
16832;SDS011;8533;48.426;10.868;2023-04-03T13:31:05;1.97;;;1.40;;
16832;SDS011;8533;48.426;10.868;2023-04-03T13:36:21;1.80;;;1.60;;
16832;SDS011;8533;48.426;10.868;2023-04-03T13:41:34;1.50;;;1.40;;
16832;SDS011;8533;48.426;10.868;2023-04-03T13:44:14;2.63;;;1.80;;
16832;SDS011;8533;48.426;10.868;2023-04-03T13:46:46;2.07;;;1.70;;
16832;SDS011;8533;48.426;10.868;2023-04-03T13:49:20;1.70;;;1.50;;
16832;SDS011;8533;48.426;10.868;2023-04-03T13:51:47;1.37;;;1.27;;
16832;SDS011;8533;48.426;10.868;2023-04-03T13:54:22;2.30;;;1.67;;
16832;SDS011;8533;48.426;10.868;2023-04-03T13:56:54;3.00;;;1.83;;
16832;SDS011;8533;48.426;10.868;2023-04-03T13:59:30;1.70;;;1.60;;
16832;SDS011;8533;48.426;10.868;2023-04-03T14:04:54;2.10;;;1.70;;
16832;SDS011;8533;48.426;10.868;2023-04-03T14:07:18;1.50;;;1.40;;
16832;SDS011;8533;48.426;10.868;2023-04-03T14:09:46;2.83;;;1.60;;
16832;SDS011;8533;48.426;10.868;2023-04-03T14:12:17;1.80;;;1.23;;
16832;SDS011;8533;48.426;10.868;2023-04-03T14:14:45;2.43;;;1.50;;
16832;SDS011;8533;48.426;10.868;2023-04-03T14:17:15;2.10;;;1.60;;
16832;SDS011;8533;48.426;10.868;2023-04-03T14:19:47;2.83;;;1.80;;
16832;SDS011;8533;48.426;10.868;2023-04-03T14:24:48;1.57;;;1.37;;
16832;SDS011;8533;48.426;10.868;2023-04-03T14:27:21;1.60;;;1.50;;
16832;SDS011;8533;48.426;10.868;2023-04-03T14:29:50;1.50;;;1.40;;
16832;SDS011;8533;48.426;10.868;2023-04-03T14:32:20;1.73;;;1.60;;
16832;SDS011;8533;48.426;10.868;2023-04-03T14:34:49;1.47;;;1.27;;
16832;SDS011;8533;48.426;10.868;2023-04-03T14:37:24;1.30;;;1.20;;
16832;SDS011;8533;48.426;10.868;2023-04-03T14:39:49;2.43;;;1.50;;
16832;SDS011;8533;48.426;10.868;2023-04-03T14:42:24;2.13;;;1.40;;
16832;SDS011;8533;48.426;10.868;2023-04-03T14:44:58;2.60;;;1.60;;
16832;SDS011;8533;48.426;10.868;2023-04-03T14:47:24;2.20;;;1.20;;
16832;SDS011;8533;48.426;10.868;2023-04-03T14:49:53;2.33;;;1.50;;
16832;SDS011;8533;48.426;10.868;2023-04-03T14:52:22;3.10;;;1.70;;
16832;SDS011;8533;48.426;10.868;2023-04-03T14:54:54;6.13;;;1.37;;
16832;SDS011;8533;48.426;10.868;2023-04-03T14:57:22;1.97;;;1.60;;
16832;SDS011;8533;48.426;10.868;2023-04-03T14:59:51;1.90;;;1.50;;
16832;SDS011;8533;48.426;10.868;2023-04-03T15:02:29;1.10;;;1.00;;
16832;SDS011;8533;48.426;10.868;2023-04-03T15:07:30;4.13;;;1.60;;
16832;SDS011;8533;48.426;10.868;2023-04-03T15:10:25;1.50;;;1.40;;
16832;SDS011;8533;48.426;10.868;2023-04-03T15:12:46;1.60;;;1.20;;
16832;SDS011;8533;48.426;10.868;2023-04-03T15:15:15;1.57;;;1.47;;
16832;SDS011;8533;48.426;10.868;2023-04-03T15:17:45;1.67;;;1.37;;
16832;SDS011;8533;48.426;10.868;2023-04-03T15:20:16;1.53;;;1.10;;
16832;SDS011;8533;48.426;10.868;2023-04-03T15:22:45;1.30;;;1.17;;
16832;SDS011;8533;48.426;10.868;2023-04-03T15:25:13;1.30;;;1.20;;
16832;SDS011;8533;48.426;10.868;2023-04-03T15:27:41;1.50;;;1.40;;
16832;SDS011;8533;48.426;10.868;2023-04-03T15:30:11;2.20;;;1.37;;
16832;SDS011;8533;48.426;10.868;2023-04-03T15:32:39;1.40;;;1.20;;
16832;SDS011;8533;48.426;10.868;2023-04-03T15:35:06;1.57;;;1.40;;
16832;SDS011;8533;48.426;10.868;2023-04-03T15:37:34;1.40;;;1.30;;
16832;SDS011;8533;48.426;10.868;2023-04-03T15:40:03;1.63;;;1.20;;
16832;SDS011;8533;48.426;10.868;2023-04-03T15:42:32;1.30;;;1.20;;
16832;SDS011;8533;48.426;10.868;2023-04-03T15:45:00;1.27;;;1.07;;
16832;SDS011;8533;48.426;10.868;2023-04-03T15:47:27;2.57;;;1.57;;
16832;SDS011;8533;48.426;10.868;2023-04-03T15:49:55;3.97;;;1.70;;
16832;SDS011;8533;48.426;10.868;2023-04-03T15:52:23;1.80;;;1.70;;
16832;SDS011;8533;48.426;10.868;2023-04-03T15:54:50;7.53;;;1.97;;
16832;SDS011;8533;48.426;10.868;2023-04-03T15:57:17;5.50;;;2.00;;
16832;SDS011;8533;48.426;10.868;2023-04-03T15:59:45;2.53;;;1.60;;
16832;SDS011;8533;48.426;10.868;2023-04-03T16:02:12;1.43;;;1.30;;
16832;SDS011;8533;48.426;10.868;2023-04-03T16:04:40;1.60;;;1.50;;
16832;SDS011;8533;48.426;10.868;2023-04-03T16:07:08;3.10;;;1.43;;
16832;SDS011;8533;48.426;10.868;2023-04-03T16:09:36;2.40;;;1.60;;
16832;SDS011;8533;48.426;10.868;2023-04-03T16:12:05;1.50;;;1.40;;
16832;SDS011;8533;48.426;10.868;2023-04-03T16:14:32;1.57;;;1.37;;
16832;SDS011;8533;48.426;10.868;2023-04-03T16:17:00;1.77;;;1.63;;
16832;SDS011;8533;48.426;10.868;2023-04-03T16:19:28;3.13;;;1.53;;
16832;SDS011;8533;48.426;10.868;2023-04-03T16:21:57;1.40;;;1.30;;
16832;SDS011;8533;48.426;10.868;2023-04-03T16:24:25;2.00;;;1.20;;
16832;SDS011;8533;48.426;10.868;2023-04-03T16:27:00;1.77;;;1.40;;
16832;SDS011;8533;48.426;10.868;2023-04-03T16:29:25;1.60;;;1.37;;
16832;SDS011;8533;48.426;10.868;2023-04-03T16:31:53;2.10;;;1.43;;
16832;SDS011;8533;48.426;10.868;2023-04-03T16:34:21;2.57;;;1.43;;
16832;SDS011;8533;48.426;10.868;2023-04-03T16:36:50;1.77;;;1.17;;
16832;SDS011;8533;48.426;10.868;2023-04-03T16:39:21;3.57;;;1.90;;
16832;SDS011;8533;48.426;10.868;2023-04-03T16:41:48;3.33;;;1.40;;
16832;SDS011;8533;48.426;10.868;2023-04-03T16:44:16;2.97;;;1.40;;
16832;SDS011;8533;48.426;10.868;2023-04-03T16:46:43;2.10;;;1.53;;
16832;SDS011;8533;48.426;10.868;2023-04-03T16:49:11;1.77;;;1.47;;
16832;SDS011;8533;48.426;10.868;2023-04-03T16:51:40;1.50;;;1.17;;
16832;SDS011;8533;48.426;10.868;2023-04-03T16:54:07;2.77;;;1.60;;
16832;SDS011;8533;48.426;10.868;2023-04-03T16:56:36;1.97;;;1.60;;
16832;SDS011;8533;48.426;10.868;2023-04-03T16:59:04;1.30;;;1.20;;
16832;SDS011;8533;48.426;10.868;2023-04-03T17:01:33;2.00;;;1.37;;
16832;SDS011;8533;48.426;10.868;2023-04-03T17:04:01;2.37;;;1.40;;
16832;SDS011;8533;48.426;10.868;2023-04-03T17:06:29;1.90;;;1.43;;
16832;SDS011;8533;48.426;10.868;2023-04-03T17:08:56;1.80;;;1.43;;
16832;SDS011;8533;48.426;10.868;2023-04-03T17:11:24;1.20;;;1.10;;
16832;SDS011;8533;48.426;10.868;2023-04-03T17:13:52;2.43;;;1.43;;
16832;SDS011;8533;48.426;10.868;2023-04-03T17:16:19;1.60;;;1.50;;
16832;SDS011;8533;48.426;10.868;2023-04-03T17:18:48;1.60;;;1.40;;
16832;SDS011;8533;48.426;10.868;2023-04-03T17:21:16;1.60;;;1.50;;
16832;SDS011;8533;48.426;10.868;2023-04-03T17:23:45;1.70;;;1.43;;
16832;SDS011;8533;48.426;10.868;2023-04-03T17:26:14;1.97;;;1.30;;
16832;SDS011;8533;48.426;10.868;2023-04-03T17:28:42;1.90;;;1.63;;
16832;SDS011;8533;48.426;10.868;2023-04-03T17:31:09;1.77;;;1.40;;
16832;SDS011;8533;48.426;10.868;2023-04-03T17:33:37;2.23;;;1.83;;
16832;SDS011;8533;48.426;10.868;2023-04-03T17:36:04;3.63;;;1.90;;
16832;SDS011;8533;48.426;10.868;2023-04-03T17:38:32;2.10;;;1.53;;
16832;SDS011;8533;48.426;10.868;2023-04-03T17:41:01;2.63;;;1.80;;
16832;SDS011;8533;48.426;10.868;2023-04-03T17:43:31;4.53;;;2.10;;